Time;durP1;ratioP1;P1;durP2;ratioP2;P2;SDS_P1;SDS_P2;PMS_P1;PMS_P2;Temp;Humidity;BMP_temperature;BMP_pressure;BME280_temperature;BME280_humidity;BME280_pressure;Samples;Min_cycle;Max_cycle;Signal;HPM_P1;HPM_P2
2022/05/17 00:00:51;;;;;;;2.10;0.57;;;;;;;19.82;36.04;98130.44;5153013;27;20031;-66
2022/05/17 00:03:17;;;;;;;1.17;0.50;;;;;;;19.80;36.24;98136.00;5156748;27;20378;-66
2022/05/17 00:05:45;;;;;;;1.60;0.57;;;;;;;19.81;36.22;98139.53;5156461;27;20033;-65
2022/05/17 00:08:11;;;;;;;1.90;0.43;;;;;;;19.81;36.17;98134.97;5156017;27;20034;-66
2022/05/17 00:10:38;;;;;;;1.50;0.40;;;;;;;19.81;36.28;98124.25;5133830;27;20062;-67
2022/05/17 00:13:04;;;;;;;1.10;0.45;;;;;;;19.81;36.68;98129.59;5141895;27;20031;-66
2022/05/17 00:15:30;;;;;;;0.63;0.35;;;;;;;19.83;36.76;98132.91;5156988;27;20061;-67
2022/05/17 00:17:56;;;;;;;0.82;0.60;;;;;;;19.84;36.35;98125.69;5155032;27;20039;-65
2022/05/17 00:20:23;;;;;;;5.43;0.38;;;;;;;19.85;36.17;98124.66;5156376;27;20038;-67
2022/05/17 00:22:49;;;;;;;0.63;0.40;;;;;;;19.86;36.41;98114.72;5155382;27;20034;-66
2022/05/17 00:25:17;;;;;;;2.45;0.70;;;;;;;19.86;36.08;98115.53;5153242;27;20046;-67
2022/05/17 00:27:43;;;;;;;1.02;0.40;;;;;;;19.85;36.10;98105.88;5155101;27;20113;-67
2022/05/17 00:30:09;;;;;;;0.50;0.30;;;;;;;19.86;36.43;98101.31;5156963;27;20125;-66
2022/05/17 00:32:35;;;;;;;1.65;0.68;;;;;;;19.87;36.49;98103.78;5156229;27;20408;-66
2022/05/17 00:35:00;;;;;;;0.20;0.20;;;;;;;19.87;36.19;98097.63;5154402;27;20033;-66
2022/05/17 00:37:26;;;;;;;3.45;0.50;;;;;;;19.86;36.61;98098.63;5150414;27;20027;-66
2022/05/17 00:39:52;;;;;;;1.65;0.40;;;;;;;19.87;36.23;98100.31;5152952;27;20561;-66
2022/05/17 00:42:18;;;;;;;5.32;0.43;;;;;;;19.86;36.39;98087.88;5155047;27;20038;-66
2022/05/17 00:44:44;;;;;;;0.47;0.30;;;;;;;19.87;36.29;98090.38;5154722;27;20386;-66
2022/05/17 00:47:27;;;;;;;0.85;0.30;;;;;;;19.86;36.57;98082.53;5155047;27;20022;-66
2022/05/17 00:49:58;;;;;;;0.70;0.30;;;;;;;19.85;35.94;98088.94;5150441;27;20098;-66
2022/05/17 00:52:35;;;;;;;;;;;;;;;19.78;36.44;98087.09;5154917;27;20038;-66
2022/05/17 00:55:09;;;;;;;1.15;0.40;;;;;;;19.78;36.51;98080.91;5154132;27;19914;-66
2022/05/17 00:58:03;;;;;;;0.43;0.40;;;;;;;19.79;36.38;98082.56;5154205;27;20496;-66
2022/05/17 01:00:33;;;;;;;0.30;0.30;;;;;;;19.78;36.04;98073.69;5124249;27;20030;-66
2022/05/17 01:03:04;;;;;;;1.60;0.52;;;;;;;19.78;36.13;98076.34;5154029;27;20490;-66
2022/05/17 01:05:32;;;;;;;0.32;0.30;;;;;;;19.78;36.07;98081.72;5154576;27;20022;-66
2022/05/17 01:07:59;;;;;;;0.40;0.22;;;;;;;19.76;36.39;98078.47;5154261;27;20045;-66
2022/05/17 01:10:27;;;;;;;1.10;0.40;;;;;;;19.78;36.24;98079.03;5154571;27;20086;-66
2022/05/17 01:15:39;;;;;;;0.73;0.63;;;;;;;19.76;36.26;98070.41;5154091;27;20077;-66
2022/05/17 01:18:06;;;;;;;0.30;0.30;;;;;;;19.76;36.41;98074.94;5154000;27;20022;-66
2022/05/17 01:20:32;;;;;;;0.55;0.38;;;;;;;19.75;36.51;98076.81;5154417;27;20030;-66
2022/05/17 01:22:59;;;;;;;0.63;0.45;;;;;;;19.76;36.21;98080.31;5154307;27;20033;-66
2022/05/17 01:25:25;;;;;;;0.50;0.35;;;;;;;19.74;36.01;98080.53;5150129;27;20024;-66
2022/05/17 01:28:01;;;;;;;0.32;0.30;;;;;;;19.73;36.28;98070.84;5154162;27;20033;-66
2022/05/17 01:30:29;;;;;;;1.15;0.47;;;;;;;19.71;36.17;98077.44;5154275;27;20022;-66
2022/05/17 01:32:54;;;;;;;0.28;0.28;;;;;;;19.73;36.26;98078.06;5153799;27;20054;-67
2022/05/17 01:35:20;;;;;;;1.25;0.40;;;;;;;19.72;36.42;98068.34;5153953;27;20069;-67
2022/05/17 01:37:50;;;;;;;0.50;0.50;;;;;;;19.72;36.36;98071.88;5153982;27;20023;-66
2022/05/17 01:40:16;;;;;;;1.00;0.60;;;;;;;19.70;36.28;98079.31;5153711;27;20034;-66
2022/05/17 01:42:42;;;;;;;0.73;0.47;;;;;;;19.70;36.22;98079.31;5153812;27;20033;-66
2022/05/17 01:45:07;;;;;;;0.70;0.40;;;;;;;19.70;36.35;98073.94;5151464;27;20062;-66
2022/05/17 01:47:33;;;;;;;1.92;0.50;;;;;;;19.70;36.42;98063.22;5153301;27;20034;-66
2022/05/17 01:49:59;;;;;;;0.75;0.45;;;;;;;19.69;36.51;98066.13;5153607;27;20026;-66
2022/05/17 01:52:24;;;;;;;0.75;0.30;;;;;;;19.69;36.36;98074.19;5153960;27;20037;-66
2022/05/17 01:54:50;;;;;;;0.95;0.30;;;;;;;19.70;36.41;98073.94;5153094;27;20030;-66
2022/05/17 01:57:15;;;;;;;0.43;0.30;;;;;;;19.69;36.49;98068.81;5153227;27;20038;-66
2022/05/17 01:59:41;;;;;;;0.30;0.30;;;;;;;19.68;36.70;98070.66;5149355;27;20031;-66
2022/05/17 02:02:07;;;;;;;0.65;0.40;;;;;;;19.69;36.50;98071.50;5153720;27;20480;-65
2022/05/17 02:04:33;;;;;;;0.55;0.40;;;;;;;19.67;36.48;98058.28;5133645;27;20022;-66
2022/05/17 02:06:58;;;;;;;1.02;0.40;;;;;;;19.67;36.55;98067.16;5153274;27;20057;-66
2022/05/17 02:09:24;;;;;;;2.53;0.50;;;;;;;19.67;36.46;98066.31;5153115;27;20117;-66
2022/05/17 02:11:49;;;;;;;1.20;0.38;;;;;;;19.66;36.42;98059.31;5153269;27;20034;-66
2022/05/17 02:14:15;;;;;;;0.50;0.35;;;;;;;19.67;36.67;98066.31;5151159;27;20034;-66
2022/05/17 02:16:41;;;;;;;0.50;0.30;;;;;;;19.67;36.65;98069.00;5151849;27;20435;-66
2022/05/17 02:19:06;;;;;;;1.13;0.28;;;;;;;19.67;36.81;98063.63;5152923;27;20085;-66
2022/05/17 02:21:35;;;;;;;0.40;0.40;;;;;;;19.68;36.81;98073.34;5153073;27;20101;-66
2022/05/17 02:24:01;;;;;;;0.88;0.40;;;;;;;19.65;36.84;98063.88;5149222;27;20015;-66
2022/05/17 02:26:26;;;;;;;0.28;0.28;;;;;;;19.67;36.77;98066.31;5153255;27;20026;-66
2022/05/17 02:28:52;;;;;;;0.43;0.25;;;;;;;19.67;36.65;98066.31;5152454;27;20593;-66
2022/05/17 02:31:18;;;;;;;0.32;0.30;;;;;;;19.69;36.75;98066.94;5153669;27;20035;-66
2022/05/17 02:33:44;;;;;;;0.50;0.30;;;;;;;19.67;36.67;98059.13;5152788;27;20075;-66
2022/05/17 02:36:09;;;;;;;5.20;0.50;;;;;;;19.69;36.84;98058.88;5153190;27;20030;-66
2022/05/17 02:38:35;;;;;;;0.65;0.60;;;;;;;19.68;36.84;98057.25;5149690;27;20456;-66
2022/05/17 02:41:00;;;;;;;1.00;0.35;;;;;;;19.68;36.89;98062.59;5152587;27;20089;-66
2022/05/17 02:43:26;;;;;;;0.22;0.20;;;;;;;19.69;36.81;98058.06;5152977;27;20114;-66
2022/05/17 02:45:53;;;;;;;0.70;0.43;;;;;;;19.69;36.70;98058.88;5153120;27;20030;-66
2022/05/17 02:48:18;;;;;;;0.20;0.20;;;;;;;19.70;36.70;98063.22;5153161;27;20027;-66
2022/05/17 02:50:44;;;;;;;0.75;0.50;;;;;;;19.72;36.53;98060.31;5152503;27;20177;-66
2022/05/17 02:53:10;;;;;;;0.60;0.60;;;;;;;19.71;36.60;98062.19;5152972;27;20041;-66
2022/05/17 02:55:35;;;;;;;0.50;0.30;;;;;;;19.69;36.76;98058.06;5152528;27;20027;-66
2022/05/17 02:58:01;;;;;;;0.45;0.30;;;;;;;19.69;36.89;98053.53;5151887;27;20504;-65
2022/05/17 03:00:26;;;;;;;0.52;0.20;;;;;;;19.71;36.89;98058.66;5152707;27;20468;-66
2022/05/17 03:02:52;;;;;;;0.55;0.40;;;;;;;19.69;36.98;98053.53;5153229;27;20027;-66
2022/05/17 03:05:18;;;;;;;1.30;0.40;;;;;;;19.70;36.93;98052.47;5151421;27;20061;-66
2022/05/17 03:07:44;;;;;;;1.20;0.40;;;;;;;19.71;36.80;98058.66;5152824;27;20118;-66
2022/05/17 03:10:11;;;;;;;0.30;0.30;;;;;;;19.72;36.97;98054.94;5152425;27;20105;-66
2022/05/17 03:12:38;;;;;;;0.75;0.30;;;;;;;19.72;37.20;98046.88;5152827;27;20046;-66
2022/05/17 03:15:05;;;;;;;0.82;0.60;;;;;;;19.74;36.86;98051.03;5151815;27;20070;-66
2022/05/17 03:17:31;;;;;;;0.52;0.47;;;;;;;19.75;36.97;98054.50;5152708;27;20389;-66
2022/05/17 03:19:57;;;;;;;0.90;0.55;;;;;;;19.71;37.03;98051.44;5152343;27;20027;-66
2022/05/17 03:22:23;;;;;;;0.55;0.40;;;;;;;19.73;37.01;98060.09;5150331;27;20477;-66
2022/05/17 03:24:49;;;;;;;0.50;0.50;;;;;;;19.72;37.07;98049.56;5152283;27;20564;-66
2022/05/17 03:27:19;;;;;;;0.65;0.38;;;;;;;19.71;36.80;98048.75;5136058;27;20401;-66
2022/05/17 03:29:45;;;;;;;0.43;0.32;;;;;;;19.72;37.12;98045.03;5155462;27;20030;-66
2022/05/17 03:32:11;;;;;;;1.48;0.32;;;;;;;19.71;37.00;98040.72;5152370;27;20366;-66
2022/05/17 03:34:37;;;;;;;0.68;0.35;;;;;;;19.73;37.20;98049.38;5156041;27;20026;-66
2022/05/17 03:37:02;;;;;;;0.77;0.57;;;;;;;19.73;37.22;98057.41;5153912;27;20022;-65
2022/05/17 03:39:28;;;;;;;0.65;0.30;;;;;;;19.74;37.38;98055.53;5152776;27;20038;-65
2022/05/17 03:41:54;;;;;;;0.52;0.40;;;;;;;19.73;37.49;98051.22;5156048;27;20053;-66
2022/05/17 03:44:20;;;;;;;0.20;0.20;;;;;;;19.74;37.26;98058.22;5156284;27;20023;-65
2022/05/17 03:46:45;;;;;;;0.43;0.30;;;;;;;19.73;37.35;98046.69;5155978;27;20110;-65
2022/05/17 03:49:11;;;;;;;0.93;0.40;;;;;;;19.75;37.19;98058.03;5155558;27;20066;-65
2022/05/17 03:51:37;;;;;;;0.70;0.55;;;;;;;19.75;37.37;98059.88;5155927;27;20031;-65
2022/05/17 03:54:03;;;;;;;0.57;0.38;;;;;;;19.75;37.28;98051.81;5156010;27;20182;-65
2022/05/17 03:56:28;;;;;;;1.23;0.30;;;;;;;19.75;37.32;98060.72;5156214;27;20026;-65
2022/05/17 03:58:54;;;;;;;0.40;0.38;;;;;;;19.74;37.31;98059.06;5155548;27;20034;-65
2022/05/17 04:01:19;;;;;;;1.35;0.40;;;;;;;19.76;37.31;98056.16;5155600;27;20030;-65
2022/05/17 04:03:45;;;;;;;2.08;0.63;;;;;;;19.75;37.32;98058.03;5155714;27;20022;-65
2022/05/17 04:06:11;;;;;;;1.02;0.30;;;;;;;19.75;37.31;98055.34;5155902;27;20030;-65
2022/05/17 04:08:37;;;;;;;0.35;0.30;;;;;;;19.75;37.45;98063.41;5155440;27;20485;-65
2022/05/17 04:11:05;;;;;;;1.80;0.40;;;;;;;19.75;37.33;98052.66;5155533;27;20050;-65
2022/05/17 04:13:32;;;;;;;0.38;0.20;;;;;;;19.77;37.49;98052.44;5155606;27;20027;-65
2022/05/17 04:15:57;;;;;;;0.77;0.35;;;;;;;19.76;37.37;98050.78;5155332;27;20077;-65
2022/05/17 04:18:23;;;;;;;0.98;0.40;;;;;;;19.76;37.21;98051.63;5155295;27;20026;-65
2022/05/17 04:20:48;;;;;;;0.30;0.30;;;;;;;19.78;37.58;98056.75;5152209;27;20026;-65
2022/05/17 04:23:14;;;;;;;0.20;0.17;;;;;;;19.78;37.37;98049.53;5155535;27;20520;-65
2022/05/17 04:25:39;;;;;;;0.20;0.20;;;;;;;19.78;37.54;98049.53;5154409;27;20032;-65
2022/05/17 04:28:06;;;;;;;0.38;0.38;;;;;;;19.77;37.29;98058.66;5154153;27;20412;-65
2022/05/17 04:30:31;;;;;;;0.40;0.30;;;;;;;19.76;37.45;98046.25;5155514;27;20043;-65
2022/05/17 04:33:00;;;;;;;1.92;0.40;;;;;;;19.78;37.51;98052.22;5155171;27;20031;-65
2022/05/17 04:35:26;;;;;;;0.32;0.30;;;;;;;19.76;37.52;98051.63;5155737;27;20026;-65
2022/05/17 04:37:51;;;;;;;0.43;0.30;;;;;;;19.77;37.56;98050.59;5154545;27;20035;-66
2022/05/17 04:40:17;;;;;;;0.35;0.30;;;;;;;19.74;37.50;98045.66;5152643;27;20137;-66
2022/05/17 04:42:43;;;;;;;2.17;0.30;;;;;;;19.78;37.56;98046.84;5154147;27;20079;-66
2022/05/17 04:45:12;;;;;;;0.73;0.35;;;;;;;19.80;37.33;98052.00;5155086;27;20038;-66
2022/05/17 04:47:42;;;;;;;0.17;0.10;;;;;;;19.79;37.48;98047.69;5150123;27;20393;-66
2022/05/17 04:50:09;;;;;;;0.50;0.30;;;;;;;19.79;37.37;98050.38;5153657;27;20061;-66
2022/05/17 04:52:34;;;;;;;1.17;0.30;;;;;;;19.77;37.52;98042.53;5154338;27;20051;-67
2022/05/17 04:55:00;;;;;;;0.80;0.30;;;;;;;19.77;37.18;98044.38;5154089;27;20026;-66
2022/05/17 04:57:26;;;;;;;0.32;0.30;;;;;;;19.75;37.26;98047.28;5154791;27;20553;-67
2022/05/17 04:59:51;;;;;;;1.00;0.40;;;;;;;19.77;37.30;98047.06;5153935;27;20117;-67
2022/05/17 05:02:17;;;;;;;0.50;0.30;;;;;;;19.75;37.53;98044.63;5154676;27;20122;-67
2022/05/17 05:04:42;;;;;;;0.22;0.20;;;;;;;19.76;37.53;98045.41;5153641;27;20534;-67
2022/05/17 05:07:08;;;;;;;0.13;0.10;;;;;;;19.76;37.89;98045.41;5135154;27;20042;-67
2022/05/17 05:09:33;;;;;;;0.45;0.32;;;;;;;19.77;37.59;98044.38;5154355;27;20451;-66
2022/05/17 05:12:00;;;;;;;0.10;0.10;;;;;;;19.78;37.75;98049.53;5154251;27;20061;-66
2022/05/17 05:14:26;;;;;;;0.50;0.30;;;;;;;19.77;37.67;98042.53;5151579;27;20065;-66
2022/05/17 05:16:52;;;;;;;0.40;0.20;;;;;;;19.76;38.09;98051.63;5152440;27;20058;-66
2022/05/17 05:19:18;;;;;;;1.40;0.35;;;;;;;19.78;37.90;98041.47;5154338;27;20035;-66
2022/05/17 05:21:44;;;;;;;0.20;0.20;;;;;;;19.77;37.82;98055.97;5150195;27;20022;-66
2022/05/17 05:24:11;;;;;;;1.13;0.40;;;;;;;19.79;37.75;98053.03;5153197;27;20103;-66
2022/05/17 05:26:37;;;;;;;2.92;0.40;;;;;;;19.78;37.66;98064.81;5151571;27;20506;-66
2022/05/17 05:29:03;;;;;;;0.35;0.35;;;;;;;19.77;37.69;98060.47;5153934;27;20050;-67
2022/05/17 05:31:29;;;;;;;1.48;0.43;;;;;;;19.77;37.71;98057.81;5154157;27;20118;-66
2022/05/17 05:33:55;;;;;;;0.50;0.50;;;;;;;19.77;37.65;98061.31;5153076;27;20041;-66
2022/05/17 05:36:20;;;;;;;0.30;0.22;;;;;;;19.76;37.69;98062.38;5154006;27;20043;-65
2022/05/17 05:38:46;;;;;;;0.40;0.30;;;;;;;19.77;37.58;98055.97;5149451;27;20089;-66
2022/05/17 05:41:13;;;;;;;1.42;0.50;;;;;;;19.77;37.69;98057.81;5135486;27;20069;-66
2022/05/17 05:43:39;;;;;;;0.85;0.40;;;;;;;19.78;37.80;98062.13;5153714;27;20038;-65
2022/05/17 05:46:05;;;;;;;0.20;0.20;;;;;;;19.77;37.70;98057.81;5153752;27;20038;-66
2022/05/17 05:48:31;;;;;;;1.27;0.35;;;;;;;19.77;37.78;98066.69;5153876;27;20396;-66
2022/05/17 05:50:56;;;;;;;1.60;0.50;;;;;;;19.76;37.83;98070.41;5152691;27;20078;-66
2022/05/17 05:53:22;;;;;;;0.82;0.40;;;;;;;19.76;37.69;98069.56;5153380;27;20457;-66
2022/05/17 05:55:57;;;;;;;0.63;0.43;;;;;;;19.74;37.81;98072.50;5153352;27;20115;-66
2022/05/17 05:58:24;;;;;;;2.30;0.50;;;;;;;19.73;37.98;98086.94;5152177;27;20031;-66
2022/05/17 06:00:49;;;;;;;0.63;0.32;;;;;;;19.72;37.75;98082.59;5153303;27;20029;-65
2022/05/17 06:03:15;;;;;;;0.80;0.40;;;;;;;19.73;37.96;98072.69;5153316;27;20420;-66
2022/05/17 06:05:41;;;;;;;0.70;0.50;;;;;;;19.73;37.87;98078.06;5152595;27;20054;-66
2022/05/17 06:08:12;;;;;;;0.30;0.20;;;;;;;19.75;37.73;98075.97;5153453;27;20030;-66
2022/05/17 06:10:37;;;;;;;0.88;0.50;;;;;;;19.75;37.98;98079.50;5153099;27;20030;-66
2022/05/17 06:13:03;;;;;;;1.17;0.50;;;;;;;19.76;37.91;98083.84;5152406;27;20034;-66
2022/05/17 06:15:28;;;;;;;1.35;0.30;;;;;;;19.76;38.02;98072.25;5152790;27;20084;-66
2022/05/17 06:17:53;;;;;;;0.32;0.30;;;;;;;19.78;38.14;98084.41;5154392;27;20026;-66
2022/05/17 06:20:19;;;;;;;1.05;0.50;;;;;;;19.78;37.83;98081.72;5154124;27;20045;-66
2022/05/17 06:22:45;;;;;;;0.65;0.40;;;;;;;19.80;38.11;98076.16;5153591;27;20074;-66
2022/05/17 06:25:11;;;;;;;1.38;0.50;;;;;;;19.81;37.80;98078.63;5154550;27;20034;-68
2022/05/17 06:27:37;;;;;;;1.30;0.60;;;;;;;19.81;37.89;98080.50;5154148;27;20034;-67
2022/05/17 06:30:03;;;;;;;1.00;0.60;;;;;;;19.82;37.97;98082.94;5153545;27;20087;-67
2022/05/17 06:32:29;;;;;;;0.80;0.60;;;;;;;19.82;37.98;98082.13;5154704;27;20031;-67
2022/05/17 06:34:55;;;;;;;0.60;0.50;;;;;;;19.81;38.04;98085.84;5154140;27;20618;-67
2022/05/17 06:37:20;;;;;;;0.82;0.45;;;;;;;19.82;38.16;98082.94;5154298;27;20026;-66
2022/05/17 06:39:46;;;;;;;0.47;0.30;;;;;;;19.82;38.10;98085.63;5153877;27;20362;-66
2022/05/17 06:42:11;;;;;;;0.50;0.32;;;;;;;19.82;38.24;98080.25;5154238;27;20045;-66
2022/05/17 06:44:37;;;;;;;0.85;0.45;;;;;;;19.82;38.17;98084.81;5154023;27;20033;-66
2022/05/17 06:47:04;;;;;;;1.02;0.40;;;;;;;19.83;38.08;98083.78;5135630;27;20418;-67
2022/05/17 06:49:31;;;;;;;1.00;0.50;;;;;;;19.82;38.16;98093.69;5153936;27;20071;-67
2022/05/17 06:52:01;;;;;;;0.77;0.50;;;;;;;19.82;38.35;98087.50;5153669;27;20034;-67
2022/05/17 06:54:26;;;;;;;1.50;0.60;;;;;;;19.81;38.23;98075.94;5153606;27;20030;-67
2022/05/17 06:56:52;;;;;;;1.30;1.17;;;;;;;19.82;38.20;98090.19;5154598;27;20034;-67
2022/05/17 06:59:18;;;;;;;0.52;0.52;;;;;;;19.80;38.15;98086.91;5153275;27;20039;-67
2022/05/17 07:01:44;;;;;;;1.52;0.65;;;;;;;19.79;38.16;98090.63;5155541;27;20382;-67
2022/05/17 07:04:09;;;;;;;1.00;0.65;;;;;;;19.77;38.28;98101.56;5158273;27;20025;-67
2022/05/17 07:06:35;;;;;;;1.98;0.68;;;;;;;19.79;38.16;98104.84;5158300;27;20030;-67
2022/05/17 07:09:00;;;;;;;1.85;0.68;;;;;;;19.78;38.36;98103.19;5157310;27;20029;-67
2022/05/17 07:14:10;;;;;;;0.65;0.57;;;;;;;19.78;38.41;98111.25;5158050;27;20401;-67
2022/05/17 07:16:36;;;;;;;0.93;0.70;;;;;;;19.78;38.39;98113.13;5158340;27;20157;-67
2022/05/17 07:19:02;;;;;;;0.82;0.70;;;;;;;19.78;38.31;98118.50;5157359;27;20034;-67
2022/05/17 07:21:27;;;;;;;0.70;0.50;;;;;;;19.76;38.38;98115.19;5156781;27;20037;-67
2022/05/17 07:23:52;;;;;;;1.90;0.55;;;;;;;19.77;38.19;98111.47;5157607;27;20097;-67
2022/05/17 07:26:18;;;;;;;1.38;0.82;;;;;;;19.76;38.38;98123.25;5145764;27;20371;-67
2022/05/17 07:28:47;;;;;;;0.50;0.40;;;;;;;19.76;38.37;98116.03;5143648;27;20106;-67
2022/05/17 07:31:13;;;;;;;2.08;0.80;;;;;;;19.76;38.46;98115.19;5157681;27;20397;-67
2022/05/17 07:33:39;;;;;;;1.60;1.00;;;;;;;19.77;38.32;98127.56;5157645;27;20027;-68
2022/05/17 07:36:06;;;;;;;0.73;0.63;;;;;;;19.77;38.55;98117.69;5161793;27;20448;-67
2022/05/17 07:38:32;;;;;;;3.80;1.00;;;;;;;19.78;38.58;98118.50;5172061;27;20022;-67
2022/05/17 07:40:57;;;;;;;1.23;0.80;;;;;;;19.77;38.68;98119.53;5157494;27;20122;-67
2022/05/17 07:43:23;;;;;;;1.98;0.70;;;;;;;19.77;38.45;98123.06;5157577;27;20513;-67
2022/05/17 07:45:52;;;;;;;1.65;1.10;;;;;;;19.79;38.69;98129.00;5157602;27;20026;-67
2022/05/17 07:48:23;;;;;;;1.77;1.10;;;;;;;19.78;38.42;98130.03;5147462;27;20099;-67
2022/05/17 07:50:49;;;;;;;2.08;1.52;;;;;;;19.78;38.51;98134.59;5117959;27;20405;-66
2022/05/17 07:53:17;;;;;;;3.30;1.40;;;;;;;19.77;38.40;98131.09;5136315;27;20031;-65
2022/05/17 07:55:45;;;;;;;2.25;1.55;;;;;;;19.77;38.60;98135.63;5156861;27;20034;-67
2022/05/17 07:58:11;;;;;;;2.25;1.27;;;;;;;19.76;38.78;98129.44;5156953;27;20079;-67
2022/05/17 08:00:39;;;;;;;3.65;1.92;;;;;;;19.76;38.71;98125.94;5157418;27;20026;-67
2022/05/17 08:03:05;;;;;;;1.95;1.27;;;;;;;19.75;38.66;98119.75;5156911;27;20047;-68
2022/05/17 08:05:31;;;;;;;1.25;1.00;;;;;;;19.76;38.44;98125.94;5157144;27;20026;-67
2022/05/17 08:07:57;;;;;;;2.60;1.77;;;;;;;19.78;38.62;98121.16;5156740;27;20558;-67
2022/05/17 08:10:23;;;;;;;1.52;1.25;;;;;;;19.78;38.81;98118.50;5155993;27;20153;-67
2022/05/17 08:12:50;;;;;;;1.75;1.25;;;;;;;19.80;38.58;98117.22;5155765;27;20054;-67
2022/05/17 08:15:16;;;;;;;2.20;1.27;;;;;;;19.86;38.77;98107.47;5147571;27;20059;-67
2022/05/17 08:17:41;;;;;;;1.15;0.80;;;;;;;19.88;38.60;98110.00;5135825;27;20121;-66
2022/05/17 08:20:09;;;;;;;2.17;1.35;;;;;;;19.90;38.68;98108.72;5150115;27;20517;-67
2022/05/17 08:22:45;;;;;;;1.95;1.58;;;;;;;19.97;38.91;98114.91;5156879;27;20451;-66
2022/05/17 08:28:03;;;;;;;2.20;1.55;;;;;;;20.03;38.60;98109.69;5157286;27;20037;-67
2022/05/17 08:30:30;;;;;;;3.17;1.90;;;;;;;20.05;38.78;98121.03;5156446;27;20386;-66
2022/05/17 08:33:17;;;;;;;2.28;1.33;;;;;;;20.06;38.72;98120.00;5135787;27;20031;-67
2022/05/17 08:35:51;;;;;;;3.53;1.50;;;;;;;20.06;38.76;98125.38;5136206;27;20034;-66
2022/05/17 08:38:39;;;;;;;2.25;1.02;;;;;;;20.05;38.82;98124.56;5156231;27;20026;-66
2022/05/17 08:41:05;;;;;;;4.35;1.80;;;;;;;20.07;38.67;98127.81;5155837;27;20440;-67
2022/05/17 08:43:50;;;;;;;2.00;1.20;;;;;;;20.07;38.89;98133.19;5155192;27;20121;-65
2022/05/17 08:46:28;;;;;;;4.80;1.20;;;;;;;20.05;38.95;98140.66;5155892;27;20091;-67
2022/05/17 08:49:16;;;;;;;1.90;1.35;;;;;;;20.06;38.84;98142.31;5155985;27;20036;-67
2022/05/17 08:51:47;;;;;;;2.22;1.45;;;;;;;20.05;38.82;98143.34;5155936;27;20022;-67
2022/05/17 08:54:20;;;;;;;1.50;1.00;;;;;;;20.05;39.08;98143.34;5155568;27;20109;-66
2022/05/17 08:56:53;;;;;;;2.53;1.40;;;;;;;20.06;38.91;98144.16;5151053;27;20377;-67
2022/05/17 08:59:23;;;;;;;1.02;0.93;;;;;;;20.07;38.47;98137.75;5135039;27;20027;-67
2022/05/17 09:02:01;;;;;;;2.33;1.40;;;;;;;20.10;38.78;98140.81;5135346;27;20375;-66
2022/05/17 09:04:48;;;;;;;1.13;0.98;;;;;;;20.11;38.93;98138.97;5141037;27;20027;-67
2022/05/17 09:07:23;;;;;;;1.58;1.13;;;;;;;20.13;38.91;98136.88;5150086;27;20086;-67
2022/05/17 09:10:27;;;;;;;3.13;1.15;;;;;;;20.13;38.90;98139.56;5154181;27;20023;-68
2022/05/17 09:13:15;;;;;;;2.50;1.80;;;;;;;20.11;39.14;98137.09;5153383;27;20098;-67
2022/05/17 09:15:43;;;;;;;1.73;1.42;;;;;;;20.10;39.13;98143.50;5153475;27;20068;-67
2022/05/17 09:18:13;;;;;;;1.92;1.25;;;;;;;20.09;39.16;98138.34;5150334;27;20050;-66
2022/05/17 09:20:39;;;;;;;2.83;1.55;;;;;;;20.09;39.14;98141.03;5154363;27;20026;-68
2022/05/17 09:23:06;;;;;;;3.30;2.03;;;;;;;20.09;39.14;98151.78;5154127;27;20068;-68
2022/05/17 09:26:07;;;;;;;2.25;1.77;;;;;;;20.07;39.24;98137.75;5154150;27;20026;-67
2022/05/17 09:29:02;;;;;;;;;;;;;;;19.98;39.34;98145.25;5140165;27;20087;-68
2022/05/17 09:31:31;;;;;;;4.30;2.33;;;;;;;19.99;39.29;98146.06;5139155;27;19919;-67
2022/05/17 09:34:08;;;;;;;4.93;2.40;;;;;;;19.99;39.29;98148.75;5153281;27;20039;-67
2022/05/17 09:36:52;;;;;;;5.53;2.40;;;;;;;20.00;39.27;98150.41;5151835;27;20058;-67
2022/05/17 09:39:22;;;;;;;7.75;2.55;;;;;;;19.99;39.24;98156.81;5153584;27;20066;-67
2022/05/17 09:41:48;;;;;;;5.32;3.00;;;;;;;19.99;39.19;98151.44;5153417;27;20026;-67
2022/05/17 09:44:21;;;;;;;4.57;1.90;;;;;;;20.00;39.03;98151.22;5153700;27;20052;-67
2022/05/17 09:46:49;;;;;;;8.15;3.55;;;;;;;20.01;39.19;98157.41;5153677;27;20075;-67
2022/05/17 09:55:07;;;;;;;5.25;2.95;;;;;;;20.02;39.09;98159.03;5153396;27;20443;-67
2022/05/17 09:57:32;;;;;;;8.15;3.10;;;;;;;19.99;39.06;98163.00;5153846;27;20037;-67
2022/05/17 10:00:12;;;;;;;6.75;3.78;;;;;;;20.00;39.19;98164.63;5153622;27;20035;-66
2022/05/17 10:02:55;;;;;;;4.65;2.83;;;;;;;20.00;39.20;98169.19;5149504;27;20037;-67
2022/05/17 10:05:30;;;;;;;7.25;3.88;;;;;;;20.00;39.31;98171.88;5153253;27;20040;-66
2022/05/17 10:08:02;;;;;;;9.57;3.58;;;;;;;19.97;39.51;98170.44;5148705;27;20026;-66
2022/05/17 10:10:30;;;;;;;5.50;3.13;;;;;;;19.89;39.71;98166.13;5144753;27;20118;-68
2022/05/17 10:13:03;;;;;;;8.55;3.90;;;;;;;19.79;40.04;98171.94;5148716;27;20031;-66
2022/05/17 10:15:32;;;;;;;10.82;3.38;;;;;;;19.72;40.47;98168.47;5151415;27;20074;-64
2022/05/17 10:18:03;;;;;;;4.22;2.83;;;;;;;19.63;40.42;98170.59;5153396;27;20041;-65
2022/05/17 10:20:40;;;;;;;6.32;3.25;;;;;;;19.56;40.73;98172.47;5143171;27;20027;-64
2022/05/17 10:23:17;;;;;;;10.95;3.15;;;;;;;19.47;40.54;98171.91;5149101;27;20030;-65
2022/05/17 10:25:48;;;;;;;5.57;3.08;;;;;;;19.45;40.88;98178.50;5135596;27;20088;-65
2022/05/17 10:28:26;;;;;;;6.18;3.38;;;;;;;19.38;41.04;98178.50;5135013;27;20019;-65
2022/05/17 10:30:57;;;;;;;3.92;2.80;;;;;;;19.34;40.88;98170.06;5147386;27;20031;-64
2022/05/17 10:33:46;;;;;;;4.43;3.13;;;;;;;19.30;41.06;98173.41;5148576;27;20042;-65
2022/05/17 10:36:23;;;;;;;6.28;3.70;;;;;;;19.28;41.02;98167.41;5139134;27;20035;-64
2022/05/17 10:39:26;;;;;;;4.82;3.15;;;;;;;19.26;41.06;98172.16;5145083;27;20098;-64
2022/05/17 10:41:51;;;;;;;7.40;3.10;;;;;;;19.23;41.29;98172.56;5136118;27;20027;-65
2022/05/17 10:44:19;;;;;;;6.47;2.78;;;;;;;19.21;41.46;98178.97;5149420;27;20035;-63
2022/05/17 10:46:53;;;;;;;7.35;3.75;;;;;;;19.21;41.41;98173.63;5139788;27;20046;-65
2022/05/17 10:49:53;;;;;;;10.30;2.75;;;;;;;19.21;41.25;98176.28;5141753;27;20049;-63
2022/05/17 10:52:25;;;;;;;5.00;2.90;;;;;;;19.18;41.57;98178.56;5144626;27;20438;-64
2022/05/17 10:55:29;;;;;;;5.68;3.00;;;;;;;19.14;41.45;98180.88;5149768;27;20099;-64
2022/05/17 10:57:55;;;;;;;3.60;2.72;;;;;;;19.12;41.70;98182.09;5126288;27;20049;-65
2022/05/17 11:00:43;;;;;;;5.55;3.40;;;;;;;19.12;41.65;98180.25;5133413;28;20113;-65
2022/05/17 11:03:37;;;;;;;4.70;2.97;;;;;;;19.08;41.53;98181.69;5133659;28;20153;-64
2022/05/17 11:06:24;;;;;;;4.53;3.47;;;;;;;19.08;41.46;98188.91;5133556;28;20398;-64
2022/05/17 11:09:09;;;;;;;6.30;2.83;;;;;;;19.06;41.20;98184.59;5150393;27;20524;-64
2022/05/17 11:11:49;;;;;;;6.32;2.75;;;;;;;19.04;41.35;98188.53;5153441;27;20042;-66
2022/05/17 11:14:15;;;;;;;3.50;2.70;;;;;;;19.01;41.31;98186.25;5153682;27;20035;-65
2022/05/17 11:16:48;;;;;;;4.00;3.20;;;;;;;19.00;41.24;98187.28;5132960;28;20859;-65
2022/05/17 11:19:25;;;;;;;4.53;2.50;;;;;;;19.00;41.25;98187.28;5132884;28;20477;-64
2022/05/17 11:21:58;;;;;;;4.88;2.70;;;;;;;19.00;41.33;98189.97;5141712;27;20107;-65
2022/05/17 11:24:48;;;;;;;4.05;3.33;;;;;;;19.00;41.21;98188.09;5153437;27;20035;-65
2022/05/17 11:27:22;;;;;;;3.38;2.95;;;;;;;18.98;41.12;98197.38;5154219;27;20034;-64
2022/05/17 11:29:51;;;;;;;5.22;3.25;;;;;;;18.95;41.17;98195.13;5153571;27;20039;-64
2022/05/17 11:32:32;;;;;;;4.65;2.13;;;;;;;18.92;41.13;98201.69;5154003;27;20091;-64
2022/05/17 11:35:04;;;;;;;4.65;2.67;;;;;;;18.91;41.41;98203.53;5152796;27;20034;-66
2022/05/17 11:37:32;;;;;;;3.13;2.38;;;;;;;18.91;41.22;98198.19;5169574;27;20085;-65
2022/05/17 11:40:04;;;;;;;3.17;2.75;;;;;;;18.90;41.28;98207.25;5174235;27;20038;-64
2022/05/17 11:45:50;;;;;;;4.00;2.80;;;;;;;18.87;41.41;98207.69;5153475;27;20088;-64
2022/05/17 11:48:18;;;;;;;3.65;2.67;;;;;;;18.88;41.44;98209.34;5153776;27;20400;-64
2022/05/17 11:50:45;;;;;;;6.53;2.35;;;;;;;18.91;41.23;98206.22;5156965;27;20091;-64
2022/05/17 11:53:22;;;;;;;6.03;2.45;;;;;;;18.92;41.50;98207.88;5156981;27;20034;-64
2022/05/17 11:56:25;;;;;;;4.20;2.75;;;;;;;18.90;41.43;98199.19;5157015;27;20042;-64
2022/05/17 11:58:56;;;;;;;4.03;2.58;;;;;;;18.90;41.62;98207.25;5139561;27;20026;-64
2022/05/17 12:01:28;;;;;;;4.28;2.13;;;;;;;18.90;41.55;98209.94;5157044;27;20117;-64